EZY49TA LGRP-EGKK
Flight info
| Callsign | EZY49TA |
|---|---|
| Flight time | N/A |
| Altitude | 36000 |
| Route | VANES UM601 ADESO UN133 RIGRO DCT DISOR DCT LONTA UL608 DOLEV DCT PODOB DCT LIKVI DCT MONID DCT RUGOG DCT RIFEN DCT SAFFA DCT ELMUR DCT RIPUS L613 HOC DCT LUL DCT RLP DCT ROTSI DCT KOTUN DCT NINAL DCT KESAX DCT KUNAV |
| Aircraft | A320/M-SDE2E3FGHIJ1RWXYZ/LB1 |
Departure
| Time | 2026-05-05 12:07 |
|---|---|
| Airport | Rhodes International Airport "Diagoras" (LGRP) |
Arrival
| Time | N/A |
|---|---|
| Airport | London Gatwick Airport (EGKK) |
| Time | Latitude | Longitude | Altitude | Speed | Heading |
|---|---|---|---|---|---|
| 2026-05-05 11:38 | 36.40322 | 28.08988 | 26 ft | 0 kts | 160° |
| 2026-05-05 11:56 | 36.40323 | 28.08987 | 25 ft | 2 kts | 160° |
| 2026-05-05 11:56 | 36.40345 | 28.08980 | 31 ft | 4 kts | 163° |
| 2026-05-05 11:57 | 36.40371 | 28.08968 | 27 ft | 4 kts | 153° |
| 2026-05-05 11:57 | 36.40393 | 28.08950 | 28 ft | 4 kts | 131° |
| 2026-05-05 11:57 | 36.40403 | 28.08927 | 28 ft | 1 kts | 97° |
| 2026-05-05 11:57 | 36.40404 | 28.08922 | 28 ft | 0 kts | 97° |
| 2026-05-05 12:00 | 36.40404 | 28.08924 | 28 ft | 1 kts | 97° |
| 2026-05-05 12:00 | 36.40400 | 28.08957 | 28 ft | 6 kts | 97° |
| 2026-05-05 12:00 | 36.40405 | 28.09028 | 27 ft | 10 kts | 75° |
| 2026-05-05 12:00 | 36.40427 | 28.09113 | 30 ft | 10 kts | 72° |
| 2026-05-05 12:01 | 36.40450 | 28.09204 | 26 ft | 11 kts | 72° |
| 2026-05-05 12:01 | 36.40474 | 28.09283 | 28 ft | 9 kts | 69° |
| 2026-05-05 12:01 | 36.40497 | 28.09345 | 28 ft | 8 kts | 56° |
| 2026-05-05 12:01 | 36.40536 | 28.09386 | 28 ft | 7 kts | 27° |
| 2026-05-05 12:02 | 36.40573 | 28.09420 | 28 ft | 7 kts | 46° |
| 2026-05-05 12:02 | 36.40608 | 28.09486 | 28 ft | 10 kts | 70° |
| 2026-05-05 12:02 | 36.40631 | 28.09568 | 29 ft | 10 kts | 71° |
| 2026-05-05 12:02 | 36.40656 | 28.09657 | 28 ft | 12 kts | 70° |
| 2026-05-05 12:03 | 36.40690 | 28.09767 | 29 ft | 15 kts | 70° |
| 2026-05-05 12:03 | 36.40725 | 28.09887 | 24 ft | 14 kts | 70° |
| 2026-05-05 12:03 | 36.40758 | 28.10000 | 25 ft | 14 kts | 70° |
| 2026-05-05 12:03 | 36.40790 | 28.10111 | 23 ft | 14 kts | 70° |
| 2026-05-05 12:04 | 36.40822 | 28.10218 | 22 ft | 12 kts | 70° |
| 2026-05-05 12:04 | 36.40846 | 28.10302 | 25 ft | 9 kts | 70° |
| 2026-05-05 12:04 | 36.40874 | 28.10396 | 27 ft | 14 kts | 70° |
| 2026-05-05 12:04 | 36.40945 | 28.10427 | 24 ft | 7 kts | 334° |
| 2026-05-05 12:05 | 36.40948 | 28.10425 | 24 ft | 0 kts | 333° |
| 2026-05-05 12:05 | 36.40962 | 28.10415 | 24 ft | 7 kts | 327° |
| 2026-05-05 12:05 | 36.41007 | 28.10359 | 24 ft | 10 kts | 312° |
| 2026-05-05 12:06 | 36.41024 | 28.10278 | 25 ft | 9 kts | 250° |
| 2026-05-05 12:06 | 36.41017 | 28.10256 | 25 ft | 0 kts | 249° |
| 2026-05-05 12:06 | 36.41015 | 28.10249 | 25 ft | 9 kts | 249° |
| 2026-05-05 12:06 | 36.40903 | 28.09868 | 24 ft | 81 kts | 250° |
| 2026-05-05 12:07 | 36.40642 | 28.08979 | 30 ft | 136 kts | 250° |
| 2026-05-05 12:07 | 36.40290 | 28.07767 | 366 ft | 151 kts | 252° |
| 2026-05-05 12:07 | 36.40012 | 28.06522 | 1070 ft | 151 kts | 267° |
| 2026-05-05 12:07 | 36.39895 | 28.05131 | 1456 ft | 173 kts | 271° |
| 2026-05-05 12:08 | 36.39794 | 28.03562 | 1828 ft | 191 kts | 270° |
| 2026-05-05 12:08 | 36.39674 | 28.01868 | 2327 ft | 203 kts | 270° |
| 2026-05-05 12:08 | 36.39534 | 28.00031 | 2764 ft | 224 kts | 269° |
| 2026-05-05 12:08 | 36.39378 | 27.98033 | 3304 ft | 241 kts | 269° |
| 2026-05-05 12:09 | 36.39208 | 27.95918 | 3880 ft | 256 kts | 269° |
| 2026-05-05 12:09 | 36.39028 | 27.93687 | 4668 ft | 264 kts | 268° |
| 2026-05-05 12:09 | 36.38837 | 27.91386 | 5468 ft | 270 kts | 268° |
| 2026-05-05 12:09 | 36.38636 | 27.89034 | 6337 ft | 275 kts | 267° |
| 2026-05-05 12:10 | 36.38431 | 27.86652 | 7136 ft | 279 kts | 267° |
| 2026-05-05 12:10 | 36.38379 | 27.84261 | 7935 ft | 281 kts | 275° |
| 2026-05-05 12:10 | 36.38405 | 27.81823 | 8801 ft | 283 kts | 275° |
| 2026-05-05 12:10 | 36.38430 | 27.79371 | 9655 ft | 286 kts | 275° |
| 2026-05-05 12:11 | 36.38455 | 27.76889 | 10439 ft | 289 kts | 275° |
| 2026-05-05 12:11 | 36.38484 | 27.74362 | 11013 ft | 300 kts | 275° |
| 2026-05-05 12:11 | 36.38685 | 27.71698 | 11270 ft | 318 kts | 283° |
| 2026-05-05 12:11 | 36.39051 | 27.68947 | 11880 ft | 326 kts | 282° |
| 2026-05-05 12:12 | 36.39406 | 27.66184 | 12597 ft | 330 kts | 282° |
| 2026-05-05 12:12 | 36.39761 | 27.63352 | 13333 ft | 333 kts | 281° |
| 2026-05-05 12:12 | 36.40114 | 27.60497 | 14059 ft | 336 kts | 281° |
| 2026-05-05 12:12 | 36.40466 | 27.57620 | 14723 ft | 338 kts | 281° |
| 2026-05-05 12:13 | 36.40823 | 27.54724 | 15391 ft | 340 kts | 281° |
| 2026-05-05 12:13 | 36.41183 | 27.51812 | 16054 ft | 342 kts | 281° |
| 2026-05-05 12:13 | 36.41549 | 27.48880 | 16715 ft | 344 kts | 281° |
| 2026-05-05 12:13 | 36.41915 | 27.45939 | 17374 ft | 346 kts | 281° |
| 2026-05-05 12:14 | 36.42283 | 27.42980 | 18040 ft | 347 kts | 281° |
| 2026-05-05 12:14 | 36.42648 | 27.40038 | 18631 ft | 349 kts | 281° |
| 2026-05-05 12:14 | 36.43019 | 27.37040 | 19181 ft | 352 kts | 281° |
| 2026-05-05 12:14 | 36.43392 | 27.34027 | 19748 ft | 354 kts | 280° |
| 2026-05-05 12:15 | 36.43766 | 27.30984 | 20255 ft | 356 kts | 280° |
| 2026-05-05 12:15 | 36.44136 | 27.27964 | 20779 ft | 359 kts | 280° |
| 2026-05-05 12:15 | 36.44513 | 27.24887 | 21334 ft | 361 kts | 280° |
| 2026-05-05 12:15 | 36.44893 | 27.21782 | 21884 ft | 364 kts | 280° |
| 2026-05-05 12:16 | 36.45276 | 27.18659 | 22428 ft | 366 kts | 279° |
| 2026-05-05 12:16 | 36.45658 | 27.15519 | 22949 ft | 369 kts | 279° |
| 2026-05-05 12:16 | 36.46041 | 27.12351 | 23475 ft | 372 kts | 279° |
| 2026-05-05 12:16 | 36.46422 | 27.09199 | 23929 ft | 374 kts | 279° |
| 2026-05-05 12:17 | 36.46812 | 27.05990 | 24361 ft | 376 kts | 279° |
| 2026-05-05 12:17 | 36.47207 | 27.02762 | 24787 ft | 378 kts | 280° |
| 2026-05-05 12:17 | 36.47604 | 26.99513 | 25204 ft | 380 kts | 280° |
| 2026-05-05 12:17 | 36.48002 | 26.96255 | 25619 ft | 382 kts | 280° |
| 2026-05-05 12:18 | 36.48402 | 26.92973 | 26022 ft | 384 kts | 280° |
| 2026-05-05 12:18 | 36.48802 | 26.89681 | 26417 ft | 386 kts | 280° |
| 2026-05-05 12:18 | 36.49199 | 26.86364 | 26799 ft | 388 kts | 281° |
| 2026-05-05 12:18 | 36.49592 | 26.83037 | 27176 ft | 390 kts | 281° |
| 2026-05-05 12:19 | 36.49986 | 26.79687 | 27548 ft | 392 kts | 281° |
| 2026-05-05 12:19 | 36.50376 | 26.76369 | 27914 ft | 394 kts | 281° |
| 2026-05-05 12:19 | 36.50775 | 26.72988 | 28278 ft | 396 kts | 281° |
| 2026-05-05 12:19 | 36.51175 | 26.69589 | 28622 ft | 398 kts | 282° |
| 2026-05-05 12:20 | 36.51573 | 26.66179 | 28981 ft | 400 kts | 282° |
| 2026-05-05 12:20 | 36.51974 | 26.62750 | 29317 ft | 402 kts | 282° |
| 2026-05-05 12:20 | 36.52390 | 26.59299 | 29652 ft | 403 kts | 284° |
| 2026-05-05 12:20 | 36.53161 | 26.55970 | 29940 ft | 400 kts | 296° |
| 2026-05-05 12:21 | 36.54470 | 26.52935 | 30264 ft | 397 kts | 307° |
| 2026-05-05 12:21 | 36.56226 | 26.50355 | 30549 ft | 395 kts | 317° |
| 2026-05-05 12:21 | 36.58404 | 26.48257 | 30808 ft | 396 kts | 328° |
| 2026-05-05 12:21 | 36.60880 | 26.46699 | 31047 ft | 399 kts | 334° |
| 2026-05-05 12:22 | 36.63400 | 26.45238 | 31306 ft | 400 kts | 333° |
| 2026-05-05 12:22 | 36.65915 | 26.43772 | 31645 ft | 399 kts | 333° |
| 2026-05-05 12:22 | 36.68418 | 26.42304 | 31988 ft | 398 kts | 333° |
| 2026-05-05 12:22 | 36.70920 | 26.40832 | 32329 ft | 397 kts | 333° |
| 2026-05-05 12:23 | 36.73387 | 26.39381 | 32658 ft | 396 kts | 333° |
| 2026-05-05 12:23 | 36.75880 | 26.37916 | 33025 ft | 395 kts | 333° |
| 2026-05-05 12:23 | 36.78369 | 26.36455 | 33368 ft | 394 kts | 333° |
| 2026-05-05 12:23 | 36.80845 | 26.35002 | 33708 ft | 393 kts | 333° |
| 2026-05-05 12:24 | 36.83319 | 26.33548 | 34046 ft | 392 kts | 333° |
| 2026-05-05 12:24 | 36.85783 | 26.32098 | 34336 ft | 391 kts | 333° |
| 2026-05-05 12:24 | 36.88244 | 26.30649 | 34595 ft | 391 kts | 333° |